TimeCDT,TemperatureF,Dew PointF,Humidity,Sea Level PressureIn,VisibilityMPH,Wind Direction,Wind SpeedMPH,Gust SpeedMPH,PrecipitationIn,Events,Conditions,WindDirDegrees,DateUTC
12:56 AM,78.1,75.0,90,30.00,10.0,Calm,Calm,-,N/A,,Partly Cloudy,0,2013-07-29 05:56:00
1:56 AM,78.1,75.0,90,29.99,10.0,Calm,Calm,-,N/A,,Scattered Clouds,0,2013-07-29 06:56:00
2:56 AM,75.9,75.0,97,29.99,9.0,Calm,Calm,-,N/A,,Partly Cloudy,0,2013-07-29 07:56:00
3:56 AM,75.0,73.9,96,30.00,7.0,Calm,Calm,-,N/A,,Mostly Cloudy,0,2013-07-29 08:56:00
4:56 AM,75.9,73.9,94,30.00,10.0,Calm,Calm,-,N/A,,Clear,0,2013-07-29 09:56:00
5:56 AM,75.0,73.9,96,30.02,8.0,Calm,Calm,-,N/A,,Scattered Clouds,0,2013-07-29 10:56:00
6:56 AM,78.1,77.0,96,30.04,6.0,Calm,Calm,-,N/A,,Scattered Clouds,0,2013-07-29 11:56:00
7:56 AM,82.0,78.1,88,30.06,10.0,Calm,Calm,-,N/A,,Scattered Clouds,0,2013-07-29 12:56:00
8:35 AM,82.4,78.8,89,30.06,10.0,South,3.5,-,N/A,,Mostly Cloudy,190,2013-07-29 13:35:00
8:56 AM,84.0,77.0,79,30.07,10.0,SSW,4.6,-,N/A,,Mostly Cloudy,200,2013-07-29 13:56:00
9:56 AM,84.9,78.1,80,30.08,10.0,South,9.2,-,N/A,,Mostly Cloudy,170,2013-07-29 14:56:00
10:23 AM,84.2,78.8,84,30.08,10.0,SSE,8.1,-,N/A,,Mostly Cloudy,150,2013-07-29 15:23:00
10:56 AM,87.1,78.1,74,30.09,10.0,SSE,6.9,-,N/A,,Mostly Cloudy,160,2013-07-29 15:56:00
11:56 AM,87.1,77.0,72,30.09,10.0,SE,8.1,-,N/A,,Scattered Clouds,130,2013-07-29 16:56:00
12:56 PM,86.0,75.9,72,30.08,10.0,SSE,8.1,-,N/A,,Scattered Clouds,160,2013-07-29 17:56:00
1:56 PM,87.1,77.0,72,30.07,10.0,SSE,9.2,-,N/A,,Mostly Cloudy,150,2013-07-29 18:56:00
2:56 PM,87.1,77.0,72,30.07,10.0,SE,11.5,-,N/A,,Mostly Cloudy,140,2013-07-29 19:56:00
3:27 PM,87.8,77.0,70,30.06,10.0,South,9.2,-,N/A,Thunderstorm,Thunderstorm,170,2013-07-29 20:27:00
3:44 PM,84.2,75.2,74,30.06,10.0,South,5.8,-,N/A,Thunderstorm,Thunderstorm,190,2013-07-29 20:44:00
3:56 PM,84.0,75.9,76,30.06,10.0,South,4.6,-,N/A,Thunderstorm,Thunderstorm,190,2013-07-29 20:56:00
4:40 PM,84.2,75.2,74,30.07,10.0,WSW,3.5,-,N/A,,Mostly Cloudy,240,2013-07-29 21:40:00
4:56 PM,82.9,77.0,82,30.07,10.0,South,5.8,-,N/A,,Mostly Cloudy,190,2013-07-29 21:56:00
5:56 PM,84.0,77.0,79,30.06,10.0,SSW,5.8,-,N/A,,Mostly Cloudy,210,2013-07-29 22:56:00
6:56 PM,84.0,77.0,79,30.08,10.0,South,6.9,-,N/A,,Mostly Cloudy,180,2013-07-29 23:56:00
7:56 PM,81.0,77.0,88,30.09,10.0,Calm,Calm,-,N/A,,Mostly Cloudy,0,2013-07-30 00:56:00
8:56 PM,80.1,77.0,90,30.11,10.0,South,4.6,-,N/A,,Mostly Cloudy,190,2013-07-30 01:56:00
9:56 PM,80.1,77.0,90,30.12,10.0,Calm,Calm,-,N/A,,Scattered Clouds,0,2013-07-30 02:56:00
10:56 PM,80.1,75.9,87,30.12,10.0,South,4.6,-,N/A,,Partly Cloudy,170,2013-07-30 03:56:00
11:56 PM,80.1,77.0,90,30.13,10.0,South,4.6,-,N/A,,Clear,190,2013-07-30 04:56:00